createdAt,value
2023-08-12T00:01:12.872Z,5.50
2023-08-12T00:06:14.407Z,5.15
2023-08-12T00:11:15.928Z,5.07
2023-08-12T00:16:17.470Z,5.35
2023-08-12T00:21:18.989Z,5.32
2023-08-12T00:26:20.497Z,6.15
2023-08-12T00:31:22.064Z,6.68
2023-08-12T00:36:23.667Z,5.20
2023-08-12T00:41:25.186Z,6.30
2023-08-12T00:46:26.753Z,7.50
2023-08-12T00:51:28.320Z,6.07
2023-08-12T00:56:29.824Z,5.78
2023-08-12T01:01:31.759Z,5.20
2023-08-12T01:06:33.284Z,6.18
2023-08-12T01:11:54.427Z,6.45
2023-08-12T01:16:59.773Z,6.60
2023-08-12T01:22:02.797Z,9.63
2023-08-12T01:27:04.819Z,5.60
2023-08-12T01:32:28.852Z,7.18
2023-08-12T01:37:30.734Z,6.43
2023-08-12T01:42:33.475Z,5.75
2023-08-12T01:47:34.998Z,5.82
2023-08-12T01:52:36.617Z,5.35
2023-08-12T01:57:38.152Z,6.13
2023-08-12T02:02:39.681Z,5.20
2023-08-12T02:07:41.236Z,4.88
2023-08-12T02:12:42.735Z,4.03
2023-08-12T02:17:44.403Z,5.50
2023-08-12T02:22:45.939Z,6.00
2023-08-12T02:27:47.481Z,5.65
2023-08-12T02:32:49.395Z,5.75
2023-08-12T02:37:50.922Z,4.22
2023-08-12T02:42:52.436Z,3.58
2023-08-12T02:47:53.975Z,4.10
2023-08-12T02:52:55.563Z,3.58
2023-08-12T02:57:57.117Z,3.42
2023-08-12T03:02:58.777Z,3.22
2023-08-12T03:08:02.515Z,3.72
2023-08-12T03:13:04.113Z,3.38
2023-08-12T03:18:05.699Z,3.60
2023-08-12T03:23:07.254Z,2.90
2023-08-12T03:28:08.939Z,3.38
2023-08-12T03:33:10.488Z,2.95
2023-08-12T03:38:12.055Z,3.00
2023-08-12T03:43:14.012Z,3.50
2023-08-12T03:48:15.510Z,3.60
2023-08-12T03:53:18.355Z,3.63
2023-08-12T03:58:19.939Z,3.50
2023-08-12T04:03:21.505Z,5.45
2023-08-12T04:08:23.478Z,7.68
2023-08-12T04:23:27.918Z,11.07
2023-08-12T04:28:29.542Z,12.50
2023-08-12T04:33:31.067Z,13.30
2023-08-12T04:38:32.611Z,13.48
2023-08-12T04:43:34.110Z,12.98
2023-08-12T04:48:35.601Z,11.88
2023-08-12T04:53:37.095Z,11.65
2023-08-12T04:58:38.635Z,10.98
2023-08-12T05:03:40.137Z,10.45
2023-08-12T05:08:41.621Z,12.25
2023-08-12T05:13:44.984Z,11.10
2023-08-12T05:18:48.393Z,12.15
2023-08-12T05:23:49.917Z,10.95
2023-08-12T05:28:51.477Z,10.85
2023-08-12T05:33:53.217Z,11.02
2023-08-12T06:09:03.353Z,11.05
2023-08-12T06:14:05.013Z,12.00
2023-08-12T06:19:06.565Z,10.95
2023-08-12T06:24:08.101Z,12.02
2023-08-12T06:29:09.630Z,11.35
2023-08-12T06:34:11.267Z,12.48
2023-08-12T06:39:12.773Z,10.15
2023-08-12T06:44:14.263Z,12.57
2023-08-12T06:49:16.246Z,11.40
2023-08-12T06:54:17.798Z,10.48
2023-08-12T06:59:19.504Z,9.85
2023-08-12T07:09:22.378Z,11.32
2023-08-12T07:14:23.946Z,10.63
2023-08-12T07:19:25.440Z,10.00
2023-08-12T07:24:26.978Z,9.98
2023-08-12T07:29:28.476Z,7.93
2023-08-12T07:34:31.688Z,10.57
2023-08-12T07:39:33.484Z,10.00
2023-08-12T07:44:34.997Z,9.60
2023-08-12T07:49:36.546Z,9.18
2023-08-12T07:59:39.430Z,9.57
2023-08-12T08:04:41.041Z,12.18
2023-08-12T08:09:42.572Z,9.82
2023-08-12T08:14:44.061Z,10.35
2023-08-12T08:19:45.552Z,9.13
2023-08-12T08:24:47.052Z,10.55
2023-08-12T08:29:48.884Z,9.90
2023-08-12T08:34:50.395Z,11.00
2023-08-12T08:39:51.924Z,9.10
2023-08-12T08:44:54.174Z,9.70
2023-08-12T08:49:56.104Z,8.98
2023-08-12T09:00:04.433Z,8.75
2023-08-12T09:05:06.422Z,8.48
2023-08-12T09:10:08.373Z,9.75
2023-08-12T09:15:10.616Z,8.25
2023-08-12T09:20:15.288Z,9.52
2023-08-12T09:25:17.042Z,7.35
2023-08-12T09:35:20.477Z,8.38
2023-08-12T09:40:21.977Z,7.18
2023-08-12T09:45:26.552Z,8.68
2023-08-12T09:50:28.090Z,8.43
2023-08-12T09:55:29.877Z,8.93
2023-08-12T10:00:31.357Z,7.72
2023-08-12T10:05:33.618Z,6.82
2023-08-12T10:10:36.116Z,8.27
2023-08-12T10:15:37.833Z,7.75
2023-08-12T10:25:41.114Z,7.38
2023-08-12T10:30:45.149Z,9.30
2023-08-12T10:35:47.902Z,10.23
2023-08-12T10:40:49.437Z,9.57
2023-08-12T10:45:53.743Z,9.45
2023-08-12T10:50:57.123Z,10.05
2023-08-12T10:55:59.645Z,8.18
2023-08-12T11:01:01.292Z,7.85
2023-08-12T11:11:11.514Z,6.82
2023-08-12T11:16:13.129Z,7.30
2023-08-12T11:21:14.665Z,6.65
2023-08-12T11:26:16.224Z,6.15
2023-08-12T11:31:18.111Z,6.30
2023-08-12T11:36:19.641Z,7.78
2023-08-12T11:41:23.908Z,6.50
2023-08-12T11:46:26.228Z,5.80
2023-08-12T11:51:27.721Z,5.70
2023-08-12T11:56:29.268Z,5.88
2023-08-12T12:01:30.825Z,6.85
2023-08-12T12:06:34.623Z,6.20
2023-08-12T12:11:37.847Z,6.82
2023-08-12T12:16:46.995Z,5.53
2023-08-12T12:21:49.944Z,4.50
2023-08-12T12:26:51.474Z,5.40
2023-08-12T12:31:52.980Z,4.10
2023-08-12T12:36:54.479Z,4.38
2023-08-12T12:41:55.979Z,3.60
2023-08-12T12:46:57.643Z,4.07
2023-08-12T12:51:59.171Z,3.10
2023-08-12T12:57:00.864Z,4.97
2023-08-12T13:07:03.841Z,4.10
2023-08-12T13:12:05.645Z,3.55
2023-08-12T13:22:08.748Z,3.15
2023-08-12T13:27:10.340Z,3.25
2023-08-12T13:32:12.955Z,3.10
2023-08-12T13:37:14.638Z,2.95
2023-08-12T13:42:16.301Z,2.90
2023-08-12T13:52:19.414Z,2.25
2023-08-12T14:02:22.299Z,2.63
2023-08-12T14:07:23.868Z,2.47
2023-08-12T14:12:25.558Z,2.42
2023-08-12T14:17:27.167Z,2.83
2023-08-12T14:22:29.022Z,2.65
2023-08-12T14:27:30.726Z,2.40
2023-08-12T14:37:33.669Z,2.38
2023-08-12T14:42:35.187Z,2.30
2023-08-12T14:47:36.918Z,3.17
2023-08-12T14:52:38.508Z,1.90
2023-08-12T14:57:40.017Z,3.13
2023-08-12T15:02:41.659Z,2.20
2023-08-12T15:07:43.400Z,2.30
2023-08-12T15:12:45.088Z,2.10
2023-08-12T15:17:46.813Z,1.80
2023-08-12T15:22:48.351Z,1.95
2023-08-12T15:27:49.849Z,1.95
2023-08-12T15:32:51.627Z,2.22
2023-08-12T15:37:53.381Z,2.00
2023-08-12T15:42:54.884Z,1.90
2023-08-12T15:47:56.556Z,2.45
2023-08-12T15:52:58.078Z,2.05
2023-08-12T15:57:59.653Z,2.38
2023-08-12T16:03:01.301Z,2.05
2023-08-12T16:08:04.648Z,1.70
2023-08-12T16:13:06.398Z,1.83
2023-08-12T16:18:08.015Z,2.10
2023-08-12T16:23:09.552Z,1.70
2023-08-12T16:28:11.117Z,2.15
2023-08-12T16:33:12.806Z,1.73
2023-08-12T16:38:14.575Z,2.03
2023-08-12T16:48:17.524Z,1.70
2023-08-12T16:53:19.250Z,2.13
2023-08-12T17:08:23.644Z,2.38
2023-08-12T17:13:25.170Z,2.45
2023-08-12T17:18:26.714Z,2.38
2023-08-12T17:23:28.758Z,2.67
2023-08-12T17:28:30.275Z,2.40
2023-08-12T17:33:31.894Z,2.97
2023-08-12T17:38:33.639Z,3.08
2023-08-12T17:48:36.560Z,3.53
2023-08-12T17:53:38.257Z,2.80
2023-08-12T17:58:40.154Z,3.25
2023-08-12T18:03:41.719Z,3.67
2023-08-12T18:08:43.309Z,3.70
2023-08-12T18:13:45.091Z,3.50
2023-08-12T18:33:50.798Z,3.65
2023-08-12T18:38:52.584Z,3.38
2023-08-12T18:43:54.107Z,7.30
2023-08-12T18:48:55.658Z,3.40
2023-08-12T18:53:59.760Z,3.67
2023-08-12T18:59:01.643Z,3.05
2023-08-12T19:04:03.196Z,2.70
2023-08-12T19:09:04.706Z,3.92
2023-08-12T19:14:06.284Z,3.25
2023-08-12T19:19:07.853Z,3.40
2023-08-12T19:24:09.433Z,3.35
2023-08-12T19:29:10.978Z,3.95
2023-08-12T19:34:12.583Z,3.45
2023-08-12T19:39:14.164Z,3.75
2023-08-12T19:44:15.734Z,2.63
2023-08-12T19:49:17.300Z,3.90
2023-08-12T19:54:18.906Z,3.20
2023-08-12T19:59:20.450Z,3.38
2023-08-12T20:04:24.454Z,3.63
2023-08-12T20:09:26.422Z,3.92
2023-08-12T20:14:27.964Z,5.00
2023-08-12T20:19:29.480Z,3.90
2023-08-12T20:24:31.053Z,3.83
2023-08-12T20:29:32.590Z,3.88
2023-08-12T20:34:34.174Z,4.40
2023-08-12T20:39:36.463Z,4.28
2023-08-12T20:44:37.996Z,4.45
2023-08-12T20:49:39.511Z,5.30
2023-08-12T20:54:41.270Z,6.15
2023-08-12T20:59:43.090Z,4.75
2023-08-12T21:04:44.585Z,4.53
2023-08-12T21:09:46.091Z,4.32
2023-08-12T21:14:47.604Z,4.40
2023-08-12T21:19:49.120Z,4.00
2023-08-12T21:24:52.430Z,4.50
2023-08-12T21:29:54.177Z,4.60
2023-08-12T21:34:55.799Z,3.78
2023-08-12T21:39:57.517Z,4.68
2023-08-12T21:44:59.050Z,5.00
2023-08-12T21:50:00.553Z,4.38
2023-08-12T21:55:02.107Z,4.28
2023-08-12T22:00:04.144Z,3.97
2023-08-12T22:05:05.717Z,3.92
2023-08-12T22:10:07.655Z,3.72
2023-08-12T22:15:09.941Z,3.50
2023-08-12T22:20:12.686Z,4.28
2023-08-12T22:25:14.420Z,4.63
2023-08-12T22:30:15.913Z,4.22
2023-08-12T22:35:18.022Z,4.00
2023-08-12T22:40:19.527Z,3.30
2023-08-12T22:45:21.147Z,3.03
2023-08-12T22:50:22.630Z,3.38
2023-08-12T22:55:24.135Z,3.78
2023-08-12T23:00:25.695Z,3.45
2023-08-12T23:05:27.201Z,3.92
2023-08-12T23:10:28.799Z,3.08
2023-08-12T23:15:30.364Z,2.88
2023-08-12T23:20:31.983Z,3.58
2023-08-12T23:25:33.499Z,3.00
2023-08-12T23:30:35.074Z,3.08
2023-08-12T23:35:36.642Z,2.75
2023-08-12T23:40:38.144Z,3.17
2023-08-12T23:45:39.980Z,3.20
2023-08-12T23:50:41.550Z,3.35
2023-08-12T23:55:43.093Z,3.00
